Time;durP1;ratioP1;P1;durP2;ratioP2;P2;SDS_P1;SDS_P2;PMS_P1;PMS_P2;Temp;Humidity;BMP_temperature;BMP_pressure;BME280_temperature;BME280_humidity;BME280_pressure;Samples;Min_cycle;Max_cycle;Signal;HPM_P1;HPM_P2
2022/12/17 13:06:54;;;;;;;53.03;47.28;;;;;;;-2.85;100.00;102673.13;5127272;29;20046;-65
2022/12/17 13:09:25;;;;;;;62.30;47.38;;;;;;;-2.87;100.00;102675.03;5127512;29;20035;-64
2022/12/17 13:12:01;;;;;;;66.97;47.13;;;;;;;-2.84;100.00;102674.78;5126742;29;20078;-64
2022/12/17 13:14:58;;;;;;;60.33;51.10;;;;;;;-2.77;100.00;102669.84;5126742;28;20106;-64
2022/12/17 13:17:38;;;;;;;59.95;51.08;;;;;;;-2.68;100.00;102660.34;5126785;29;20242;-64
2022/12/17 13:20:23;;;;;;;54.97;48.88;;;;;;;-2.62;100.00;102649.28;5126758;29;20035;-64
2022/12/17 13:23:25;;;;;;;71.80;54.35;;;;;;;-2.58;100.00;102640.09;5125915;28;20054;-64
2022/12/17 13:26:16;;;;;;;66.53;47.42;;;;;;;-2.58;100.00;102640.09;5126397;28;20404;-64
2022/12/17 13:28:55;;;;;;;65.85;54.38;;;;;;;-2.60;100.00;102637.59;5126431;29;20442;-64
2022/12/17 13:31:29;;;;;;;63.92;53.40;;;;;;;-2.63;100.00;102645.78;5126354;29;20046;-64
2022/12/17 13:34:09;;;;;;;61.30;51.90;;;;;;;-2.62;100.00;102638.69;5125584;28;20470;-65
2022/12/17 13:36:45;;;;;;;58.40;47.88;;;;;;;-2.65;100.00;102636.31;5126220;29;20471;-64
2022/12/17 13:39:38;;;;;;;65.10;47.15;;;;;;;-2.68;100.00;102633.91;5126029;28;20024;-65
2022/12/17 13:42:27;;;;;;;65.80;51.05;;;;;;;-2.96;100.00;102582.47;5125599;28;20073;-65
2022/12/17 13:44:58;;;;;;;65.88;48.00;;;;;;;-2.60;100.00;102636.78;5126045;28;20027;-66
2022/12/17 13:47:32;;;;;;;82.72;50.92;;;;;;;-2.62;100.00;102636.91;5126075;29;20078;-66
2022/12/17 13:50:19;;;;;;;70.32;50.17;;;;;;;-2.63;100.00;102631.72;5125690;29;20084;-66
2022/12/17 13:52:50;;;;;;;60.22;46.78;;;;;;;-2.63;100.00;102619.34;5125156;28;20035;-66
2022/12/17 13:55:24;;;;;;;61.13;49.22;;;;;;;-2.68;100.00;102624.16;5108491;29;20019;-65
2022/12/17 13:57:55;;;;;;;58.30;43.60;;;;;;;-2.68;100.00;102629.47;5126270;29;20055;-65
2022/12/17 14:00:28;;;;;;;74.57;45.80;;;;;;;-2.80;100.00;102623.34;5109117;29;20019;-65
2022/12/17 14:03:09;;;;;;;86.97;48.13;;;;;;;-2.75;100.00;102638.84;5125112;28;20059;-65
2022/12/17 14:05:43;;;;;;;146.75;56.50;;;;;;;-2.80;100.00;102633.09;5126466;28;20031;-70
2022/12/17 14:08:19;;;;;;;72.40;46.92;;;;;;;-2.84;100.00;102636.94;5109127;29;20023;-65
2022/12/17 14:12:20;;;;;;;115.32;50.42;;;;;;;-2.90;100.00;102645.41;5126001;28;20031;-65
2022/12/17 14:13:45;;;;;;;107.60;50.20;;;;;;;-2.94;100.00;102644.81;5125927;28;20051;-66
2022/12/17 14:16:17;;;;;;;76.60;47.92;;;;;;;-2.95;100.00;102651.06;5125827;29;20023;-65
2022/12/17 14:18:51;;;;;;;93.75;51.30;;;;;;;-2.95;100.00;102653.69;5126113;28;20090;-65
2022/12/17 14:21:24;;;;;;;113.75;52.08;;;;;;;-3.01;100.00;102656.00;5108701;29;20023;-66
2022/12/17 14:23:56;;;;;;;74.70;48.40;;;;;;;-3.07;100.00;102659.97;5125040;28;20027;-65
2022/12/17 14:26:26;;;;;;;71.28;52.10;;;;;;;-3.08;100.00;102659.13;5139570;23;20051;-66
2022/12/17 14:28:57;;;;;;;56.80;46.28;;;;;;;-3.08;100.00;102672.31;5120027;28;20027;-66
2022/12/17 14:31:27;;;;;;;119.97;57.35;;;;;;;-3.12;100.00;102662.13;5145935;28;20447;-66
2022/12/17 14:34:06;;;;;;;70.38;49.65;;;;;;;-3.10;100.00;102670.75;5127590;28;20093;-65
2022/12/17 14:36:39;;;;;;;61.60;43.78;;;;;;;-3.11;100.00;102664.63;5145642;28;20026;-65
2022/12/17 14:39:18;;;;;;;55.92;47.05;;;;;;;-3.05;100.00;102671.25;5145832;28;20123;-66
2022/12/17 14:44:51;;;;;;;61.42;47.90;;;;;;;-3.04;100.00;102678.22;5145579;28;20054;-66
2022/12/17 14:47:33;;;;;;;53.63;45.75;;;;;;;-3.02;100.00;102673.66;5145393;28;20037;-66
2022/12/17 14:50:03;;;;;;;52.83;46.15;;;;;;;-3.01;100.00;102685.91;5145235;28;20483;-65
2022/12/17 14:52:39;;;;;;;62.70;46.85;;;;;;;-3.04;100.00;102686.13;5144760;28;20125;-66
2022/12/17 14:55:22;;;;;;;58.33;49.63;;;;;;;-3.02;100.00;102683.38;5145359;28;20026;-66
2022/12/17 14:58:05;;;;;;;73.72;53.88;;;;;;;-3.08;100.00;102682.06;5145401;28;20491;-66
2022/12/17 15:00:45;;;;;;;66.63;49.83;;;;;;;-3.31;100.00;102668.03;5145260;28;20023;-66
2022/12/17 15:03:26;;;;;;;58.83;50.28;;;;;;;-3.23;100.00;102685.94;5126960;28;20509;-67
2022/12/17 15:06:03;;;;;;;60.42;48.55;;;;;;;-3.33;100.00;102695.53;5145133;28;20038;-66
2022/12/17 15:08:40;;;;;;;57.15;51.00;;;;;;;-3.48;100.00;102661.44;5144966;28;20031;-66
2022/12/17 15:11:13;;;;;;;70.53;49.00;;;;;;;-3.41;100.00;102682.91;5144393;28;20125;-66
2022/12/17 15:13:43;;;;;;;78.40;51.10;;;;;;;-3.39;100.00;102681.00;5143959;28;20162;-66
2022/12/17 15:16:14;;;;;;;61.65;49.20;;;;;;;-3.34;100.00;102688.56;5144982;28;20473;-66
2022/12/17 15:18:44;;;;;;;84.88;54.78;;;;;;;-3.38;100.00;102690.59;5144627;28;20027;-66
2022/12/17 15:21:17;;;;;;;54.40;41.95;;;;;;;-3.45;100.00;102692.03;5144990;28;20026;-65
2022/12/17 15:23:47;;;;;;;49.35;43.95;;;;;;;-3.52;100.00;102686.41;5144241;28;20022;-65
2022/12/17 15:26:18;;;;;;;45.08;40.55;;;;;;;-3.49;100.00;102694.09;5127233;28;20038;-66
2022/12/17 15:28:49;;;;;;;60.90;47.58;;;;;;;-3.56;100.00;102682.31;5127230;28;20161;-66
2022/12/17 15:31:19;;;;;;;56.78;45.30;;;;;;;-3.52;100.00;102694.34;5144645;28;20429;-65
2022/12/17 15:33:50;;;;;;;63.33;48.70;;;;;;;-3.65;100.00;102677.75;5143776;28;20027;-66
2022/12/17 15:36:20;;;;;;;65.13;50.50;;;;;;;-3.55;100.00;102694.56;5144374;28;20038;-66
2022/12/17 15:38:51;;;;;;;65.47;48.83;;;;;;;-3.55;100.00;102699.84;5144447;28;20019;-66
2022/12/17 15:44:10;;;;;;;59.50;52.97;;;;;;;-3.69;100.00;102710.63;5144026;28;20050;-66
2022/12/17 15:46:40;;;;;;;53.83;47.88;;;;;;;-3.75;100.00;102716.38;5144553;28;20027;-66
2022/12/17 15:49:11;;;;;;;50.63;45.35;;;;;;;-3.84;100.00;102711.81;5144073;28;20027;-66
2022/12/17 15:51:41;;;;;;;69.35;50.33;;;;;;;-3.80;100.00;102718.53;5144280;28;20022;-66
2022/12/17 15:54:11;;;;;;;60.55;50.65;;;;;;;-3.81;100.00;102717.69;5143457;28;20508;-66
2022/12/17 15:56:50;;;;;;;64.63;52.17;;;;;;;-3.83;100.00;102718.78;5144161;28;20118;-66
2022/12/17 15:59:21;;;;;;;63.05;52.90;;;;;;;-3.88;100.00;102720.91;5143936;28;20022;-67
2022/12/17 16:01:51;;;;;;;73.97;55.88;;;;;;;-3.88;100.00;102721.75;5144049;28;20073;-66
2022/12/17 16:04:21;;;;;;;55.28;49.38;;;;;;;-3.88;100.00;102721.75;5144901;28;20077;-66
2022/12/17 16:06:52;;;;;;;60.17;48.15;;;;;;;-3.87;100.00;102727.88;5127223;28;20022;-66
2022/12/17 16:09:24;;;;;;;53.70;47.72;;;;;;;-3.92;100.00;102733.50;5144215;28;20030;-66
2022/12/17 16:11:55;;;;;;;59.83;48.08;;;;;;;-3.97;100.00;102735.63;5143470;28;20027;-64
2022/12/17 16:14:26;;;;;;;58.60;46.72;;;;;;;-3.99;100.00;102723.50;5144087;28;20679;-66
2022/12/17 16:16:56;;;;;;;77.00;48.20;;;;;;;-4.05;100.00;102729.28;5143086;28;20034;-65
2022/12/17 16:19:27;;;;;;;62.30;45.85;;;;;;;-4.05;100.00;102739.81;5144296;28;20483;-65
2022/12/17 16:21:57;;;;;;;74.18;53.65;;;;;;;-4.10;100.00;102743.66;5143591;28;20026;-66
2022/12/17 16:24:27;;;;;;;50.90;44.55;;;;;;;-4.12;100.00;102740.28;5125757;28;20394;-65
2022/12/17 16:26:58;;;;;;;74.47;47.50;;;;;;;-4.14;100.00;102738.69;5143638;28;20047;-66
2022/12/17 16:29:28;;;;;;;55.95;46.30;;;;;;;-4.21;100.00;102740.94;5143848;28;20117;-66
2022/12/17 16:31:59;;;;;;;55.15;48.42;;;;;;;-4.18;100.00;102745.16;5143498;28;20026;-65
2022/12/17 16:34:29;;;;;;;66.40;50.40;;;;;;;-4.16;100.00;102746.72;5126234;28;20034;-65
2022/12/17 16:37:00;;;;;;;61.72;52.67;;;;;;;-4.18;100.00;102746.00;5143320;28;20483;-66
2022/12/17 16:39:30;;;;;;;52.30;44.03;;;;;;;-4.25;100.00;102733.38;5126123;28;20103;-66
2022/12/17 16:42:01;;;;;;;52.85;45.83;;;;;;;-4.23;100.00;102744.66;5143288;28;20027;-66
2022/12/17 16:44:31;;;;;;;63.13;51.65;;;;;;;-4.26;100.00;102743.06;5143482;28;20460;-69
2022/12/17 16:47:02;;;;;;;58.15;51.80;;;;;;;-4.33;100.00;102756.84;5143431;28;20031;-66
2022/12/17 16:49:33;;;;;;;102.78;53.53;;;;;;;-4.46;100.00;102741.06;5138727;28;20066;-65
2022/12/17 16:52:03;;;;;;;66.50;50.05;;;;;;;-4.42;100.00;102746.03;5129454;28;20022;-65
2022/12/17 16:54:34;;;;;;;63.75;50.65;;;;;;;-4.38;100.00;102743.16;5102853;29;20195;-65
2022/12/17 16:57:04;;;;;;;72.55;51.55;;;;;;;-4.39;100.00;102750.22;5085853;29;20031;-65
2022/12/17 16:59:34;;;;;;;71.32;50.50;;;;;;;-4.43;100.00;102746.13;5104790;29;20031;-65
2022/12/17 17:02:12;;;;;;;59.53;46.70;;;;;;;-4.42;100.00;102742.53;5121403;28;20031;-66
2022/12/17 17:04:43;;;;;;;60.00;51.97;;;;;;;-4.44;100.00;102749.72;5122423;29;20031;-65
2022/12/17 17:07:13;;;;;;;57.25;51.15;;;;;;;-4.42;100.00;102750.44;5122064;29;20027;-65
2022/12/17 17:09:44;;;;;;;61.10;49.30;;;;;;;-4.41;100.00;102746.84;5121913;29;20027;-65
2022/12/17 17:12:14;;;;;;;58.72;45.90;;;;;;;-4.50;100.00;102734.34;5114542;29;20016;-66
2022/12/17 17:14:44;;;;;;;59.42;52.85;;;;;;;-4.55;100.00;102736.47;5107294;29;20111;-66
2022/12/17 17:17:15;;;;;;;78.00;52.38;;;;;;;-4.59;100.00;102727.09;5119233;29;20030;-66
2022/12/17 17:19:45;;;;;;;68.28;45.30;;;;;;;-4.53;100.00;102742.47;5108732;29;20030;-66
2022/12/17 17:22:16;;;;;;;71.70;48.22;;;;;;;-4.55;100.00;102747.84;5121104;28;20042;-65
2022/12/17 17:24:46;;;;;;;104.97;50.38;;;;;;;-4.57;100.00;102751.53;5122456;28;20027;-65
2022/12/17 17:27:16;;;;;;;59.75;47.85;;;;;;;-4.65;100.00;102730.19;5130338;28;20038;-68
2022/12/17 17:29:47;;;;;;;51.38;46.08;;;;;;;-4.60;100.00;102734.16;5142423;28;20389;-66
2022/12/17 17:32:17;;;;;;;69.13;47.72;;;;;;;-4.55;100.00;102739.09;5140538;28;20026;-66
2022/12/17 17:34:47;;;;;;;94.07;46.22;;;;;;;-4.56;100.00;102747.97;5141135;28;20027;-66
2022/12/17 17:37:18;;;;;;;97.45;47.38;;;;;;;-4.55;100.00;102747.84;5138992;28;20026;-65
2022/12/17 17:39:48;;;;;;;53.60;40.15;;;;;;;-4.60;100.00;102752.59;5145908;28;20019;-66
2022/12/17 17:42:18;;;;;;;61.60;46.95;;;;;;;-4.78;100.00;102731.06;5145355;28;20054;-66
2022/12/17 17:44:49;;;;;;;80.78;51.72;;;;;;;-4.63;100.00;102752.00;5146295;28;20033;-66
2022/12/17 17:47:19;;;;;;;59.92;47.80;;;;;;;-4.61;100.00;102736.91;5146415;28;20035;-66
2022/12/17 17:49:50;;;;;;;68.32;48.00;;;;;;;-4.59;100.00;102742.91;5145871;28;20249;-66
2022/12/17 17:52:20;;;;;;;57.83;45.90;;;;;;;-4.62;100.00;102732.63;5145199;28;20084;-66
2022/12/17 17:54:50;;;;;;;60.03;40.90;;;;;;;-4.65;100.00;102740.75;5146164;28;20026;-67
2022/12/17 17:57:21;;;;;;;50.50;44.55;;;;;;;-4.65;100.00;102732.84;5146442;28;20027;-66
2022/12/17 17:59:51;;;;;;;54.63;48.70;;;;;;;-4.65;100.00;102738.94;5128985;28;20086;-65
2022/12/17 18:02:21;;;;;;;60.03;47.08;;;;;;;-4.62;100.00;102738.69;5144496;28;20027;-67
2022/12/17 18:04:52;;;;;;;58.08;45.42;;;;;;;-4.61;100.00;102743.00;5133581;28;20096;-65
2022/12/17 18:07:22;;;;;;;58.58;45.47;;;;;;;-4.57;100.00;102744.47;5126183;29;20025;-65
2022/12/17 18:09:53;;;;;;;60.85;46.15;;;;;;;-4.54;100.00;102751.31;5126161;29;20059;-66
2022/12/17 18:15:30;;;;;;;67.55;41.28;;;;;;;-4.63;100.00;102741.47;5080417;29;20039;-66
2022/12/17 18:18:00;;;;;;;69.85;46.08;;;;;;;-4.53;100.00;102756.50;5135273;28;20035;-66
2022/12/17 18:20:31;;;;;;;63.95;46.53;;;;;;;-4.54;100.00;102756.59;5145478;28;20046;-66
2022/12/17 18:23:02;;;;;;;59.90;46.75;;;;;;;-4.74;100.00;102734.31;5145163;28;20231;-66
2022/12/17 18:25:33;;;;;;;74.55;50.60;;;;;;;-4.64;100.00;102759.06;5145322;28;20057;-66
2022/12/17 18:28:04;;;;;;;62.75;50.08;;;;;;;-4.66;100.00;102768.06;5145808;28;20383;-66
2022/12/17 18:30:37;;;;;;;64.93;48.55;;;;;;;-4.67;100.00;102755.81;5145600;28;20106;-66
2022/12/17 18:33:07;;;;;;;68.38;50.55;;;;;;;-4.65;100.00;102759.19;5127598;28;20475;-67
2022/12/17 18:35:37;;;;;;;58.97;43.60;;;;;;;-4.71;100.00;102767.53;5145453;28;20146;-66
2022/12/17 18:38:08;;;;;;;69.22;52.88;;;;;;;-4.74;100.00;102763.31;5145848;28;20078;-65
2022/12/17 18:40:38;;;;;;;61.60;42.88;;;;;;;-4.78;100.00;102762.69;5145355;28;20455;-66
2022/12/17 18:43:23;;;;;;;68.30;47.53;;;;;;;-4.85;100.00;102757.97;5144366;28;20025;-69
2022/12/17 18:45:54;;;;;;;67.40;48.33;;;;;;;-4.84;100.00;102765.75;5144846;28;20468;-67
2022/12/17 18:48:24;;;;;;;59.30;52.90;;;;;;;-4.87;100.00;102760.69;5124898;28;20428;-67
2022/12/17 18:51:02;;;;;;;67.40;53.58;;;;;;;-4.90;100.00;102762.72;5137015;28;20027;-66
2022/12/17 18:53:32;;;;;;;65.13;52.90;;;;;;;-5.00;100.00;102762.53;5144922;28;20448;-67
2022/12/17 18:56:10;;;;;;;59.00;52.33;;;;;;;-4.93;100.00;102781.41;5145543;28;20034;-65
2022/12/17 18:58:41;;;;;;;76.15;61.17;;;;;;;-4.96;100.00;102769.28;5145587;28;20029;-66
2022/12/17 19:01:26;;;;;;;71.75;54.60;;;;;;;-4.93;100.00;102771.69;5144610;28;20117;-66
2022/12/17 19:04:00;;;;;;;72.85;59.08;;;;;;;-4.94;100.00;102779.72;5122852;28;20030;-66
2022/12/17 19:06:31;;;;;;;79.50;59.45;;;;;;;-5.02;100.00;102779.41;5125008;28;20027;-66
2022/12/17 19:09:03;;;;;;;85.18;57.58;;;;;;;-4.96;100.00;102790.34;5124748;29;20074;-66
2022/12/17 19:11:34;;;;;;;65.03;56.22;;;;;;;-5.04;100.00;102781.28;5124869;29;20027;-67
2022/12/17 19:14:05;;;;;;;83.78;63.90;;;;;;;-4.95;100.00;102793.84;5124782;29;20035;-66
2022/12/17 19:16:35;;;;;;;81.30;60.72;;;;;;;-4.93;100.00;102791.94;5125367;28;20509;-65
2022/12/17 19:19:06;;;;;;;88.55;63.70;;;;;;;-4.91;100.00;102797.94;5125180;29;20090;-67
2022/12/17 19:21:36;;;;;;;79.15;59.08;;;;;;;-4.91;100.00;102804.03;5124879;29;20031;-66
2022/12/17 19:24:10;;;;;;;73.03;58.25;;;;;;;-4.93;100.00;102808.59;5123630;28;20038;-66
2022/12/17 19:26:41;;;;;;;108.78;59.25;;;;;;;-5.25;100.00;102758.16;5124893;28;20023;-65
2022/12/17 19:29:14;;;;;;;84.22;57.55;;;;;;;-4.95;100.00;102805.22;5108016;29;20059;-66
2022/12/17 19:31:45;;;;;;;87.47;62.22;;;;;;;-4.97;100.00;102799.22;5124147;28;20111;-66
2022/12/17 19:34:17;;;;;;;68.82;57.28;;;;;;;-4.97;100.00;102799.22;5124691;29;20114;-66
2022/12/17 19:36:47;;;;;;;73.95;59.72;;;;;;;-4.99;100.00;102798.47;5124857;29;20077;-66
2022/12/17 19:39:18;;;;;;;76.45;65.35;;;;;;;-5.17;100.00;102773.38;5124214;28;20016;-67
2022/12/17 19:41:49;;;;;;;69.93;55.50;;;;;;;-5.00;100.00;102791.50;5104637;28;20067;-66
2022/12/17 19:44:20;;;;;;;73.63;56.50;;;;;;;-5.01;100.00;102803.00;5104200;29;20107;-65
2022/12/17 19:46:50;;;;;;;79.97;61.65;;;;;;;-5.03;100.00;102790.88;5122085;29;20031;-66
2022/12/17 19:49:21;;;;;;;63.38;53.75;;;;;;;-5.04;100.00;102797.09;5124309;28;20063;-67
2022/12/17 19:51:51;;;;;;;68.47;61.15;;;;;;;-5.08;100.00;102811.44;5123618;28;20063;-67
2022/12/17 19:54:22;;;;;;;72.00;57.83;;;;;;;-5.06;100.00;102820.91;5123871;29;20042;-68
2022/12/17 19:56:52;;;;;;;78.18;64.00;;;;;;;-5.02;100.00;102818.91;5123817;29;20026;-66
2022/12/17 19:59:23;;;;;;;76.65;64.28;;;;;;;-5.01;100.00;102825.88;5123554;28;20102;-66
2022/12/17 20:01:53;;;;;;;81.50;66.05;;;;;;;-5.01;100.00;102831.13;5123086;29;20051;-65
2022/12/17 20:04:23;;;;;;;76.03;62.78;;;;;;;-5.03;100.00;102825.13;5123653;28;20031;-66
2022/12/17 20:06:54;;;;;;;72.45;62.40;;;;;;;-5.09;100.00;102818.50;5123979;29;20565;-66
2022/12/17 20:09:25;;;;;;;81.85;62.95;;;;;;;-5.06;100.00;102810.38;5123520;28;20551;-67
2022/12/17 20:11:55;;;;;;;85.18;63.47;;;;;;;-5.06;100.00;102804.25;5123209;28;20031;-65
2022/12/17 20:14:27;;;;;;;83.68;63.05;;;;;;;-5.07;100.00;102798.16;5124018;28;20106;-66
2022/12/17 20:16:58;;;;;;;88.15;64.47;;;;;;;-5.11;100.00;102783.50;5123600;29;20298;-69
2022/12/17 20:19:31;;;;;;;96.07;66.85;;;;;;;-5.14;100.00;102795.09;5123044;28;20019;-67
2022/12/17 20:22:05;;;;;;;69.97;61.67;;;;;;;-5.15;100.00;102800.47;5122643;29;20041;-67
2022/12/17 20:24:38;;;;;;;81.43;63.13;;;;;;;-5.21;100.00;102800.91;5123827;28;20566;-65
2022/12/17 20:27:09;;;;;;;90.20;69.10;;;;;;;-5.22;100.00;102810.59;5123894;28;20055;-68
2022/12/17 20:29:40;;;;;;;73.78;64.03;;;;;;;-5.28;100.00;102811.03;5123659;29;20097;-66
2022/12/17 20:32:10;;;;;;;83.30;63.53;;;;;;;-5.31;100.00;102805.13;5122756;29;20124;-66
2022/12/17 20:34:40;;;;;;;68.05;58.95;;;;;;;-5.36;100.00;102807.22;5146798;23;20066;-65
2022/12/17 20:37:11;;;;;;;91.82;65.90;;;;;;;-5.43;100.00;102796.25;5130378;28;20059;-65
2022/12/17 20:39:41;;;;;;;91.55;66.88;;;;;;;-5.52;100.00;102783.75;5124062;29;20031;-66
2022/12/17 20:42:12;;;;;;;76.93;65.40;;;;;;;-5.58;100.00;102781.53;5104437;29;20106;-66
2022/12/17 20:44:42;;;;;;;82.22;66.85;;;;;;;-5.62;100.00;102796.66;5122376;29;20031;-67
2022/12/17 20:47:14;;;;;;;106.53;70.15;;;;;;;-5.69;100.00;102778.75;5124226;29;20102;-66
2022/12/17 20:49:44;;;;;;;77.97;65.13;;;;;;;-5.73;100.00;102779.91;5124164;28;20031;-66
2022/12/17 20:52:15;;;;;;;90.70;66.65;;;;;;;-5.72;100.00;102785.06;5123629;28;20049;-66
2022/12/17 20:54:45;;;;;;;92.95;70.88;;;;;;;-5.72;100.00;102800.84;5123917;28;20020;-65
2022/12/17 20:57:16;;;;;;;94.22;68.07;;;;;;;-5.72;100.00;102800.84;5123792;28;20024;-67
2022/12/17 20:59:46;;;;;;;79.60;68.18;;;;;;;-5.76;100.00;102791.47;5124045;29;20214;-66
2022/12/17 21:02:17;;;;;;;83.55;68.50;;;;;;;-5.83;100.00;102803.38;5123522;28;20397;-65
2022/12/17 21:04:47;;;;;;;97.90;75.13;;;;;;;-5.90;100.00;102802.13;5123486;29;20463;-66
2022/12/17 21:07:17;;;;;;;92.88;67.30;;;;;;;-5.93;100.00;102807.56;5123693;29;20031;-65
2022/12/17 21:09:48;;;;;;;80.55;66.05;;;;;;;-5.98;100.00;102810.50;5122922;29;20102;-66
2022/12/17 21:12:18;;;;;;;82.55;70.63;;;;;;;-6.03;100.00;102812.59;5125093;28;20494;-66
2022/12/17 21:14:48;;;;;;;93.13;68.30;;;;;;;-6.06;100.00;102822.50;5127478;29;20527;-66
2022/12/17 21:17:19;;;;;;;95.60;77.70;;;;;;;-6.13;100.00;102806.25;5127246;29;20033;-66
2022/12/17 21:19:49;;;;;;;92.45;76.82;;;;;;;-6.12;100.00;102807.94;5127209;28;20102;-65
2022/12/17 21:22:20;;;;;;;84.40;70.75;;;;;;;-6.36;100.00;102776.22;5126547;28;20023;-66
2022/12/17 21:24:50;;;;;;;86.50;67.68;;;;;;;-6.07;100.00;102813.75;5126991;29;20463;-65
2022/12/17 21:27:21;;;;;;;81.95;63.13;;;;;;;-6.04;100.00;102820.56;5109739;29;20027;-65
2022/12/17 21:29:52;;;;;;;89.35;67.13;;;;;;;-6.01;100.00;102820.38;5109705;29;20019;-66
2022/12/17 21:32:22;;;;;;;91.82;67.30;;;;;;;-5.98;100.00;102834.19;5126136;29;20179;-63
2022/12/17 21:34:52;;;;;;;90.75;64.45;;;;;;;-6.02;100.00;102823.94;5126563;28;20126;-66
2022/12/17 21:37:23;;;;;;;89.78;65.88;;;;;;;-6.03;100.00;102832.78;5126964;29;20111;-65
2022/12/17 21:39:53;;;;;;;84.68;68.13;;;;;;;-6.03;100.00;102843.31;5126749;29;20060;-66
2022/12/17 21:45:13;;;;;;;85.90;61.50;;;;;;;-6.15;100.00;102830.03;5126590;28;20045;-66
2022/12/17 21:47:43;;;;;;;79.65;63.83;;;;;;;-6.22;100.00;102830.50;5127469;28;20226;-64
2022/12/17 21:50:13;;;;;;;78.95;62.70;;;;;;;-6.24;100.00;102835.88;5109578;29;20027;-64
2022/12/17 21:52:44;;;;;;;84.65;63.63;;;;;;;-6.31;100.00;102837.19;5126485;29;20023;-65
2022/12/17 21:55:14;;;;;;;82.07;57.03;;;;;;;-6.35;100.00;102821.75;5126705;28;20516;-65
2022/12/17 21:57:45;;;;;;;82.43;63.50;;;;;;;-6.41;100.00;102825.59;5126690;28;20483;-64
2022/12/17 22:00:15;;;;;;;73.88;56.88;;;;;;;-6.44;100.00;102825.78;5126903;29;20082;-63
2022/12/17 22:02:47;;;;;;;73.00;56.20;;;;;;;-6.47;100.00;102829.44;5126176;29;20034;-65
2022/12/17 22:05:18;;;;;;;88.13;63.65;;;;;;;-6.55;100.00;102831.72;5126472;28;20455;-65
2022/12/17 22:07:48;;;;;;;58.97;52.92;;;;;;;-6.61;100.00;102821.59;5126452;29;20023;-64
2022/12/17 22:10:19;;;;;;;66.32;56.97;;;;;;;-6.59;100.00;102837.25;5109015;29;20031;-65
2022/12/17 22:15:39;;;;;;;66.13;50.38;;;;;;;-6.64;100.00;102845.41;5126386;29;20097;-65
2022/12/17 22:18:09;;;;;;;68.40;55.63;;;;;;;-6.74;100.00;102836.44;5126308;29;20027;-65
2022/12/17 22:20:39;;;;;;;72.43;55.88;;;;;;;-6.74;100.00;102840.84;5126553;29;20019;-66
2022/12/17 22:23:10;;;;;;;75.25;56.00;;;;;;;-6.75;100.00;102841.78;5124896;28;20035;-66
2022/12/17 22:25:40;;;;;;;77.97;57.88;;;;;;;-6.75;100.00;102847.03;5126043;28;20119;-66
2022/12/17 22:28:10;;;;;;;67.55;55.60;;;;;;;-6.77;100.00;102843.66;5126191;29;20031;-64
2022/12/17 22:33:30;;;;;;;74.03;59.22;;;;;;;-6.75;100.00;102847.88;5125786;28;20626;-65
2022/12/17 22:36:01;;;;;;;67.65;57.58;;;;;;;-6.79;100.00;102850.78;5125638;29;20023;-63
2022/12/17 22:38:31;;;;;;;72.93;54.08;;;;;;;-6.90;100.00;102841.78;5108880;29;20027;-65
2022/12/17 22:41:06;;;;;;;57.92;51.65;;;;;;;-6.86;100.00;102853.78;5125856;28;20078;-64
2022/12/17 22:43:36;;;;;;;63.22;55.70;;;;;;;-6.97;100.00;102855.41;5125677;28;20035;-64
2022/12/17 22:46:07;;;;;;;65.15;53.15;;;;;;;-7.01;100.00;102860.00;5126040;29;20027;-66
2022/12/17 22:48:37;;;;;;;62.17;54.05;;;;;;;-7.07;100.00;102862.97;5108606;29;20122;-66
2022/12/17 22:51:09;;;;;;;66.28;51.80;;;;;;;-7.11;100.00;102863.25;5125949;29;20033;-64
2022/12/17 22:53:39;;;;;;;57.88;48.40;;;;;;;-7.11;100.00;102848.34;5125210;28;20027;-66
2022/12/17 22:56:10;;;;;;;66.47;57.92;;;;;;;-7.13;100.00;102841.50;5125327;29;20073;-66
2022/12/17 22:58:41;;;;;;;66.10;53.22;;;;;;;-7.13;100.00;102842.34;5125410;29;20065;-64
2022/12/17 23:01:12;;;;;;;65.13;51.72;;;;;;;-7.07;100.00;102843.75;5108214;29;20118;-65
2022/12/17 23:03:42;;;;;;;77.25;61.10;;;;;;;-7.06;100.00;102841.03;5125226;28;20106;-65
2022/12/17 23:06:15;;;;;;;81.03;62.10;;;;;;;-7.12;100.00;102828.28;5125374;29;20031;-63
2022/12/17 23:08:45;;;;;;;62.00;55.42;;;;;;;-7.10;100.00;102841.31;5124547;29;20019;-65
2022/12/17 23:11:19;;;;;;;74.70;59.58;;;;;;;-7.11;100.00;102847.50;5107753;29;20026;-65
2022/12/17 23:13:50;;;;;;;67.22;56.55;;;;;;;-7.34;100.00;102820.00;5124457;28;20027;-64
2022/12/17 23:16:20;;;;;;;66.00;55.17;;;;;;;-7.25;100.00;102850.97;5125329;29;20054;-66
2022/12/17 23:18:51;;;;;;;59.38;49.50;;;;;;;-7.40;100.00;102838.75;5125313;29;20023;-65
2022/12/17 23:21:24;;;;;;;63.78;52.40;;;;;;;-7.50;100.00;102836.66;5125089;28;20131;-66
2022/12/17 23:23:56;;;;;;;61.80;48.90;;;;;;;-7.64;100.00;102820.06;5124264;28;20159;-66
2022/12/17 23:26:29;;;;;;;64.03;50.20;;;;;;;-7.65;100.00;102824.44;5125033;29;20031;-65
2022/12/17 23:29:03;;;;;;;51.58;45.25;;;;;;;-7.66;100.00;102829.78;5107706;29;20077;-65
2022/12/17 23:31:36;;;;;;;57.60;51.45;;;;;;;-7.63;100.00;102819.97;5124654;29;20503;-64
2022/12/17 23:34:07;;;;;;;54.13;43.85;;;;;;;-7.59;100.00;102818.84;5124309;28;20118;-65
2022/12/17 23:36:37;;;;;;;57.28;48.80;;;;;;;-7.72;100.00;102804.75;5124614;29;20110;-66
2022/12/17 23:39:08;;;;;;;52.67;45.35;;;;;;;-7.64;100.00;102826.16;5124689;29;20027;-65
2022/12/17 23:41:38;;;;;;;55.03;45.92;;;;;;;-7.74;100.00;102822.34;5124959;29;20106;-65
2022/12/17 23:44:08;;;;;;;53.83;43.55;;;;;;;-7.73;100.00;102829.28;5124205;28;20094;-65
2022/12/17 23:46:39;;;;;;;49.15;44.28;;;;;;;-7.72;100.00;102833.59;5124665;29;20061;-66
2022/12/17 23:49:09;;;;;;;54.03;42.28;;;;;;;-7.77;100.00;102829.56;5107337;29;20246;-63
2022/12/17 23:51:39;;;;;;;59.92;45.30;;;;;;;-7.83;100.00;102830.78;5124675;29;20146;-65
2022/12/17 23:54:10;;;;;;;52.40;44.33;;;;;;;-7.82;100.00;102829.84;5124009;28;20023;-64
2022/12/17 23:56:40;;;;;;;53.42;47.95;;;;;;;-7.80;100.00;102833.22;5124781;29;20603;-63
2022/12/17 23:59:11;;;;;;;54.28;43.78;;;;;;;-7.78;100.00;102833.09;5124475;29;20035;-65
